sensor_id;sensor_type;location;lat;lon;timestamp;pressure;altitude;pressure_sealevel;temperature;humidity
54453;BME280;40363;52.270;10.546;2022-08-21T00:01:50;75839.84;;;-147.06;61.67
54453;BME280;40363;52.270;10.546;2022-08-21T00:04:17;75858.34;;;-147.06;62.35
54453;BME280;40363;52.270;10.546;2022-08-21T00:06:44;75868.63;;;-147.06;62.69
54453;BME280;40363;52.270;10.546;2022-08-21T00:09:10;75866.56;;;-147.06;62.19
54453;BME280;40363;52.270;10.546;2022-08-21T00:11:38;75874.78;;;-147.06;62.93
54453;BME280;40363;52.270;10.546;2022-08-21T00:14:07;75874.78;;;-147.06;64.09
54453;BME280;40363;52.270;10.546;2022-08-21T00:16:35;75883.00;;;-147.06;64.49
54453;BME280;40363;52.270;10.546;2022-08-21T00:19:01;75885.06;;;-147.06;63.92
54453;BME280;40363;52.270;10.546;2022-08-21T00:21:28;75889.16;;;-147.06;64.12
54453;BME280;40363;52.270;10.546;2022-08-21T00:23:55;75899.44;;;-147.06;64.65
54453;BME280;40363;52.270;10.546;2022-08-21T00:26:21;75907.66;;;-147.06;65.46
54453;BME280;40363;52.270;10.546;2022-08-21T00:28:49;75920.00;;;-147.06;65.38
54453;BME280;40363;52.270;10.546;2022-08-21T00:31:16;75928.22;;;-147.06;66.01
54453;BME280;40363;52.270;10.546;2022-08-21T00:33:45;75954.94;;;-147.06;66.21
54453;BME280;40363;52.270;10.546;2022-08-21T00:36:13;75950.81;;;-147.06;66.38
54453;BME280;40363;52.270;10.546;2022-08-21T00:38:39;75946.72;;;-147.06;67.08
54453;BME280;40363;52.270;10.546;2022-08-21T00:41:09;75936.44;;;-147.06;67.07
54453;BME280;40363;52.270;10.546;2022-08-21T00:43:37;75940.53;;;-147.06;67.26
54453;BME280;40363;52.270;10.546;2022-08-21T00:46:06;75944.66;;;-147.06;67.45
54453;BME280;40363;52.270;10.546;2022-08-21T00:48:33;75963.16;;;-147.06;67.82
54453;BME280;40363;52.270;10.546;2022-08-21T00:51:03;75977.53;;;-147.06;68.20
54453;BME280;40363;52.270;10.546;2022-08-21T00:53:31;75983.69;;;-147.06;68.68
54453;BME280;40363;52.270;10.546;2022-08-21T00:55:58;75996.03;;;-147.06;69.38
54453;BME280;40363;52.270;10.546;2022-08-21T00:58:27;75989.88;;;-147.06;69.59
54453;BME280;40363;52.270;10.546;2022-08-21T01:00:55;75983.69;;;-147.06;69.85
54453;BME280;40363;52.270;10.546;2022-08-21T01:03:24;75981.66;;;-147.06;69.91
54453;BME280;40363;52.270;10.546;2022-08-21T01:05:52;75983.69;;;-147.06;69.94
54453;BME280;40363;52.270;10.546;2022-08-21T01:08:20;76006.31;;;-147.06;70.31
54453;BME280;40363;52.270;10.546;2022-08-21T01:10:47;75996.03;;;-147.06;70.31
54453;BME280;40363;52.270;10.546;2022-08-21T01:13:17;76000.16;;;-147.06;70.58
54453;BME280;40363;52.270;10.546;2022-08-21T01:15:46;76006.31;;;-147.06;70.86
54453;BME280;40363;52.270;10.546;2022-08-21T01:18:15;76010.41;;;-147.06;71.03
54453;BME280;40363;52.270;10.546;2022-08-21T01:20:55;76012.47;;;-147.06;71.10
54453;BME280;40363;52.270;10.546;2022-08-21T01:23:22;76016.59;;;-147.06;71.35
54453;BME280;40363;52.270;10.546;2022-08-21T01:25:49;76020.69;;;-147.06;71.16
54453;BME280;40363;52.270;10.546;2022-08-21T01:28:15;76022.75;;;-147.06;71.57
54453;BME280;40363;52.270;10.546;2022-08-21T01:30:43;76051.53;;;-147.06;72.70
54453;BME280;40363;52.270;10.546;2022-08-21T01:33:10;76037.13;;;-147.06;72.46
54453;BME280;40363;52.270;10.546;2022-08-21T01:35:37;76030.97;;;-147.06;72.19
54453;BME280;40363;52.270;10.546;2022-08-21T01:38:05;76028.91;;;-147.06;72.53
54453;BME280;40363;52.270;10.546;2022-08-21T01:40:31;76049.47;;;-147.06;72.95
54453;BME280;40363;52.270;10.546;2022-08-21T01:42:58;76059.75;;;-147.06;72.88
54453;BME280;40363;52.270;10.546;2022-08-21T01:45:25;76057.69;;;-147.06;73.14
54453;BME280;40363;52.270;10.546;2022-08-21T01:47:51;76055.63;;;-147.06;73.22
54453;BME280;40363;52.270;10.546;2022-08-21T01:50:19;76047.41;;;-147.06;73.10
54453;BME280;40363;52.270;10.546;2022-08-21T01:52:46;76045.34;;;-147.06;73.45
54453;BME280;40363;52.270;10.546;2022-08-21T01:55:16;76047.41;;;-147.06;73.06
54453;BME280;40363;52.270;10.546;2022-08-21T01:57:44;76055.63;;;-147.06;73.66
54453;BME280;40363;52.270;10.546;2022-08-21T02:00:13;76059.75;;;-147.06;73.59
54453;BME280;40363;52.270;10.546;2022-08-21T02:02:40;76070.00;;;-147.06;74.61
54453;BME280;40363;52.270;10.546;2022-08-21T02:05:09;76067.97;;;-147.06;74.45
54453;BME280;40363;52.270;10.546;2022-08-21T02:07:37;76074.13;;;-147.06;74.63
54453;BME280;40363;52.270;10.546;2022-08-21T02:10:06;76078.25;;;-147.06;74.63
54453;BME280;40363;52.270;10.546;2022-08-21T02:12:34;76076.19;;;-147.06;74.50
54453;BME280;40363;52.270;10.546;2022-08-21T02:15:03;76082.34;;;-147.06;74.45
54453;BME280;40363;52.270;10.546;2022-08-21T02:17:38;76094.69;;;-147.06;74.75
54453;BME280;40363;52.270;10.546;2022-08-21T02:20:05;76102.91;;;-147.06;74.91
54453;BME280;40363;52.270;10.546;2022-08-21T02:22:32;76094.69;;;-147.06;74.82
54453;BME280;40363;52.270;10.546;2022-08-21T02:24:58;76098.78;;;-147.06;74.63
54453;BME280;40363;52.270;10.546;2022-08-21T02:27:25;76109.06;;;-147.06;75.25
54453;BME280;40363;52.270;10.546;2022-08-21T02:29:53;76129.63;;;-147.06;75.68
54453;BME280;40363;52.270;10.546;2022-08-21T02:32:20;76139.91;;;-147.06;75.93
54453;BME280;40363;52.270;10.546;2022-08-21T02:34:47;76129.63;;;-147.06;75.51
54453;BME280;40363;52.270;10.546;2022-08-21T02:37:16;76150.16;;;-147.06;76.26
54453;BME280;40363;52.270;10.546;2022-08-21T02:39:43;76152.22;;;-147.06;76.23
54453;BME280;40363;52.270;10.546;2022-08-21T02:42:09;76141.94;;;-147.06;76.01
54453;BME280;40363;52.270;10.546;2022-08-21T02:44:36;76154.28;;;-147.06;75.83
54453;BME280;40363;52.270;10.546;2022-08-21T02:47:04;76144.00;;;-147.06;75.29
54453;BME280;40363;52.270;10.546;2022-08-21T02:49:31;76139.91;;;-147.06;75.36
54453;BME280;40363;52.270;10.546;2022-08-21T02:51:57;76129.63;;;-147.06;75.43
54453;BME280;40363;52.270;10.546;2022-08-21T02:54:24;76135.78;;;-147.06;75.04
54453;BME280;40363;52.270;10.546;2022-08-21T02:56:51;76135.78;;;-147.06;75.52
54453;BME280;40363;52.270;10.546;2022-08-21T02:59:18;76152.22;;;-147.06;76.21
54453;BME280;40363;52.270;10.546;2022-08-21T03:01:44;76152.22;;;-147.06;75.83
54453;BME280;40363;52.270;10.546;2022-08-21T03:04:12;76156.34;;;-147.06;76.36
54453;BME280;40363;52.270;10.546;2022-08-21T03:06:39;76172.78;;;-147.06;77.18
54453;BME280;40363;52.270;10.546;2022-08-21T03:09:05;76181.00;;;-147.06;78.75
54453;BME280;40363;52.270;10.546;2022-08-21T03:11:32;76187.16;;;-147.06;79.36
54453;BME280;40363;52.270;10.546;2022-08-21T03:13:59;76183.06;;;-147.06;78.99
54453;BME280;40363;52.270;10.546;2022-08-21T03:16:25;76205.66;;;-147.06;79.82
54453;BME280;40363;52.270;10.546;2022-08-21T03:18:52;76213.88;;;-147.06;80.53
54453;BME280;40363;52.270;10.546;2022-08-21T03:21:20;76197.44;;;-147.06;80.23
54453;BME280;40363;52.270;10.546;2022-08-21T03:23:47;76201.56;;;-147.06;80.20
54453;BME280;40363;52.270;10.546;2022-08-21T03:26:13;76197.44;;;-147.06;80.28
54453;BME280;40363;52.270;10.546;2022-08-21T03:28:40;76218.00;;;-147.06;81.69
54453;BME280;40363;52.270;10.546;2022-08-21T03:31:06;76218.00;;;-147.06;81.62
54453;BME280;40363;52.270;10.546;2022-08-21T03:33:33;76230.31;;;-147.06;82.08
54453;BME280;40363;52.270;10.546;2022-08-21T03:36:04;76215.94;;;-147.06;82.01
54453;BME280;40363;52.270;10.546;2022-08-21T03:38:33;76205.66;;;-147.06;81.60
54453;BME280;40363;52.270;10.546;2022-08-21T03:41:01;76205.66;;;-147.06;81.64
54453;BME280;40363;52.270;10.546;2022-08-21T03:43:28;76213.88;;;-147.06;81.47
54453;BME280;40363;52.270;10.546;2022-08-21T03:45:54;76220.03;;;-147.06;82.06
54453;BME280;40363;52.270;10.546;2022-08-21T03:48:21;76222.09;;;-147.06;81.69
54453;BME280;40363;52.270;10.546;2022-08-21T03:50:48;76228.28;;;-147.06;82.26
54453;BME280;40363;52.270;10.546;2022-08-21T03:53:17;76230.31;;;-147.06;82.24
54453;BME280;40363;52.270;10.546;2022-08-21T03:55:46;76228.28;;;-147.06;82.24
54453;BME280;40363;52.270;10.546;2022-08-21T03:58:14;76226.22;;;-147.06;82.24
54453;BME280;40363;52.270;10.546;2022-08-21T04:00:40;76246.75;;;-147.06;82.29
54453;BME280;40363;52.270;10.546;2022-08-21T04:03:07;76246.75;;;-147.06;82.63
54453;BME280;40363;52.270;10.546;2022-08-21T04:05:33;76238.53;;;-147.06;82.43
54453;BME280;40363;52.270;10.546;2022-08-21T04:08:04;76246.75;;;-147.06;82.22
54453;BME280;40363;52.270;10.546;2022-08-21T04:10:33;76250.88;;;-147.06;82.57
54453;BME280;40363;52.270;10.546;2022-08-21T04:13:02;76257.03;;;-147.06;82.36
54453;BME280;40363;52.270;10.546;2022-08-21T04:15:29;76265.25;;;-147.06;82.42
54453;BME280;40363;52.270;10.546;2022-08-21T04:17:56;76283.75;;;-147.06;82.96
54453;BME280;40363;52.270;10.546;2022-08-21T04:20:24;76283.75;;;-147.06;83.34
54453;BME280;40363;52.270;10.546;2022-08-21T04:22:51;76283.75;;;-147.06;82.83
54453;BME280;40363;52.270;10.546;2022-08-21T04:25:19;76287.88;;;-147.06;82.85
54453;BME280;40363;52.270;10.546;2022-08-21T04:27:46;76289.94;;;-147.06;82.85
54453;BME280;40363;52.270;10.546;2022-08-21T04:30:15;76283.75;;;-147.06;82.46
54453;BME280;40363;52.270;10.546;2022-08-21T04:32:42;76291.97;;;-147.06;82.37
54453;BME280;40363;52.270;10.546;2022-08-21T04:35:11;76298.16;;;-147.06;81.68
54453;BME280;40363;52.270;10.546;2022-08-21T04:37:38;76296.09;;;-147.06;81.96
54453;BME280;40363;52.270;10.546;2022-08-21T04:40:06;76283.75;;;-147.06;81.50
54453;BME280;40363;52.270;10.546;2022-08-21T04:42:41;76279.66;;;-147.06;81.37
54453;BME280;40363;52.270;10.546;2022-08-21T04:45:15;76300.19;;;-147.06;82.23
54453;BME280;40363;52.270;10.546;2022-08-21T04:47:41;76300.19;;;-147.06;81.93
54453;BME280;40363;52.270;10.546;2022-08-21T04:50:08;76296.09;;;-147.06;81.98
54453;BME280;40363;52.270;10.546;2022-08-21T04:52:35;76283.75;;;-147.06;81.60
54453;BME280;40363;52.270;10.546;2022-08-21T04:55:03;76300.19;;;-147.06;81.85
54453;BME280;40363;52.270;10.546;2022-08-21T04:57:30;76291.97;;;-147.06;82.03
54453;BME280;40363;52.270;10.546;2022-08-21T04:59:56;76285.81;;;-147.06;81.60
54453;BME280;40363;52.270;10.546;2022-08-21T05:02:25;76283.75;;;-147.06;81.44
54453;BME280;40363;52.270;10.546;2022-08-21T05:04:53;76279.66;;;-147.06;81.65
54453;BME280;40363;52.270;10.546;2022-08-21T05:07:23;76263.22;;;-147.06;81.18
54453;BME280;40363;52.270;10.546;2022-08-21T05:09:53;76259.09;;;-147.06;80.76
54453;BME280;40363;52.270;10.546;2022-08-21T05:12:20;76283.75;;;-147.06;81.00
54453;BME280;40363;52.270;10.546;2022-08-21T05:14:47;76271.44;;;-147.06;81.45
54453;BME280;40363;52.270;10.546;2022-08-21T05:17:14;76277.59;;;-147.06;81.56
54453;BME280;40363;52.270;10.546;2022-08-21T05:19:42;76261.16;;;-147.06;81.12
54453;BME280;40363;52.270;10.546;2022-08-21T05:22:09;76257.03;;;-147.06;81.04
54453;BME280;40363;52.270;10.546;2022-08-21T05:24:35;76238.53;;;-147.06;80.30
54453;BME280;40363;52.270;10.546;2022-08-21T05:27:04;76238.53;;;-147.06;80.38
54453;BME280;40363;52.270;10.546;2022-08-21T05:29:32;76242.66;;;-147.06;80.52
54453;BME280;40363;52.270;10.546;2022-08-21T05:31:58;76234.44;;;-147.06;80.35
54453;BME280;40363;52.270;10.546;2022-08-21T05:34:25;76236.50;;;-147.06;80.20
54453;BME280;40363;52.270;10.546;2022-08-21T05:36:53;76236.50;;;-147.06;79.08
54453;BME280;40363;52.270;10.546;2022-08-21T05:39:20;76222.09;;;-147.06;78.21
54453;BME280;40363;52.270;10.546;2022-08-21T05:41:46;76176.88;;;-147.06;77.19
54453;BME280;40363;52.270;10.546;2022-08-21T05:44:13;76154.28;;;-147.06;75.50
54453;BME280;40363;52.270;10.546;2022-08-21T05:46:39;76172.78;;;-147.06;73.50
54453;BME280;40363;52.270;10.546;2022-08-21T05:49:06;76152.22;;;-147.06;74.05
54453;BME280;40363;52.270;10.546;2022-08-21T05:51:33;76154.28;;;-147.06;73.89
54453;BME280;40363;52.270;10.546;2022-08-21T05:54:00;76121.41;;;-147.06;73.45
54453;BME280;40363;52.270;10.546;2022-08-21T05:56:27;76098.78;;;-147.06;72.50
54453;BME280;40363;52.270;10.546;2022-08-21T05:58:55;76078.25;;;-147.06;72.14
54453;BME280;40363;52.270;10.546;2022-08-21T06:01:23;76041.25;;;-147.06;71.69
54453;BME280;40363;52.270;10.546;2022-08-21T06:03:50;75991.91;;;-147.06;70.62
54453;BME280;40363;52.270;10.546;2022-08-21T06:06:17;75985.75;;;-147.06;70.69
54453;BME280;40363;52.270;10.546;2022-08-21T06:08:44;75961.09;;;-147.06;69.70
54453;BME280;40363;52.270;10.546;2022-08-21T06:11:12;75946.72;;;-147.06;69.45
54453;BME280;40363;52.270;10.546;2022-08-21T06:13:38;75950.81;;;-147.06;70.13
54453;BME280;40363;52.270;10.546;2022-08-21T06:16:09;75979.59;;;-147.06;71.02
54453;BME280;40363;52.270;10.546;2022-08-21T06:18:37;75957.00;;;-147.06;70.65
54453;BME280;40363;52.270;10.546;2022-08-21T06:21:04;75954.94;;;-147.06;71.25
54453;BME280;40363;52.270;10.546;2022-08-21T06:23:32;75926.16;;;-147.06;71.00
54453;BME280;40363;52.270;10.546;2022-08-21T06:25:59;75946.72;;;-147.06;71.24
54453;BME280;40363;52.270;10.546;2022-08-21T06:28:27;75905.59;;;-147.06;70.10
54453;BME280;40363;52.270;10.546;2022-08-21T06:30:54;75850.13;;;-147.06;68.63
54453;BME280;40363;52.270;10.546;2022-08-21T06:33:20;75827.50;;;-147.06;68.01
54453;BME280;40363;52.270;10.546;2022-08-21T06:35:49;75794.63;;;-147.06;67.37
54453;BME280;40363;52.270;10.546;2022-08-21T06:38:17;75755.59;;;-147.06;66.15
54453;BME280;40363;52.270;10.546;2022-08-21T06:40:46;75704.22;;;-147.06;65.17
54453;BME280;40363;52.270;10.546;2022-08-21T06:43:15;75733.00;;;-147.06;65.84
54453;BME280;40363;52.270;10.546;2022-08-21T06:45:44;75749.44;;;-147.06;66.49
54453;BME280;40363;52.270;10.546;2022-08-21T06:48:31;75767.91;;;-147.06;67.28
54453;BME280;40363;52.270;10.546;2022-08-21T06:51:03;75774.09;;;-147.06;66.90
54453;BME280;40363;52.270;10.546;2022-08-21T06:53:29;75778.19;;;-147.06;67.00
54453;BME280;40363;52.270;10.546;2022-08-21T06:55:58;75755.59;;;-147.06;67.19
54453;BME280;40363;52.270;10.546;2022-08-21T06:58:27;75737.09;;;-147.06;67.04
54453;BME280;40363;52.270;10.546;2022-08-21T07:00:58;75704.22;;;-147.06;66.86
54453;BME280;40363;52.270;10.546;2022-08-21T07:03:45;75696.00;;;-147.06;65.01
54453;BME280;40363;52.270;10.546;2022-08-21T07:06:20;75634.34;;;-147.06;63.43
54453;BME280;40363;52.270;10.546;2022-08-21T07:14:48;75593.25;;;-147.06;62.34
54453;BME280;40363;52.270;10.546;2022-08-21T07:17:16;75572.69;;;-147.06;62.28
54453;BME280;40363;52.270;10.546;2022-08-21T07:19:43;75437.06;;;-147.06;59.76
54453;BME280;40363;52.270;10.546;2022-08-21T07:22:10;75441.19;;;-147.06;59.51
54453;BME280;40363;52.270;10.546;2022-08-21T07:24:37;75589.13;;;-147.06;62.45
54453;BME280;40363;52.270;10.546;2022-08-21T07:27:04;75564.47;;;-147.06;62.49
54453;BME280;40363;52.270;10.546;2022-08-21T07:29:31;75541.88;;;-147.06;62.68
54453;BME280;40363;52.270;10.546;2022-08-21T07:31:58;75515.16;;;-147.06;61.05
54453;BME280;40363;52.270;10.546;2022-08-21T07:34:33;75482.28;;;-147.06;60.32
54453;BME280;40363;52.270;10.546;2022-08-21T07:37:00;75523.38;;;-147.06;57.92
54453;BME280;40363;52.270;10.546;2022-08-21T07:39:26;75568.59;;;-147.06;58.27
54453;BME280;40363;52.270;10.546;2022-08-21T07:41:53;75574.75;;;-147.06;57.29
54453;BME280;40363;52.270;10.546;2022-08-21T07:44:20;75543.94;;;-147.06;58.14
54453;BME280;40363;52.270;10.546;2022-08-21T07:46:46;75492.56;;;-147.06;56.69
54453;BME280;40363;52.270;10.546;2022-08-21T07:49:13;75439.13;;;-147.06;55.34
54453;BME280;40363;52.270;10.546;2022-08-21T07:51:43;75426.81;;;-147.06;53.22
54453;BME280;40363;52.270;10.546;2022-08-21T07:54:10;75408.31;;;-147.06;53.72
54453;BME280;40363;52.270;10.546;2022-08-21T07:56:37;75297.34;;;-147.06;50.81
54453;BME280;40363;52.270;10.546;2022-08-21T07:59:04;75063.13;;;-147.06;46.44
54453;BME280;40363;52.270;10.546;2022-08-21T08:01:40;75081.59;;;-147.06;45.27
54453;BME280;40363;52.270;10.546;2022-08-21T08:04:07;74855.59;;;-147.06;42.45
54453;BME280;40363;52.270;10.546;2022-08-21T08:06:33;74779.59;;;-147.06;41.06
54453;BME280;40363;52.270;10.546;2022-08-21T08:09:02;74923.41;;;-147.06;42.23
54453;BME280;40363;52.270;10.546;2022-08-21T08:11:29;74946.00;;;-147.06;41.62
54453;BME280;40363;52.270;10.546;2022-08-21T08:13:56;74880.25;;;-147.06;41.99
54453;BME280;40363;52.270;10.546;2022-08-21T08:16:26;74985.03;;;-147.06;42.71
54453;BME280;40363;52.270;10.546;2022-08-21T08:18:53;74989.16;;;-147.06;42.92
54453;BME280;40363;52.270;10.546;2022-08-21T08:21:21;74995.31;;;-147.06;42.67
54453;BME280;40363;52.270;10.546;2022-08-21T08:23:48;75044.63;;;-147.06;43.24
54453;BME280;40363;52.270;10.546;2022-08-21T08:26:16;75081.59;;;-147.06;44.08
54453;BME280;40363;52.270;10.546;2022-08-21T08:28:43;74943.94;;;-147.06;42.90
54453;BME280;40363;52.270;10.546;2022-08-21T08:31:12;74913.13;;;-147.06;42.60
54453;BME280;40363;52.270;10.546;2022-08-21T08:33:39;74787.81;;;-147.06;40.94
54453;BME280;40363;52.270;10.546;2022-08-21T08:36:12;74648.09;;;-147.06;39.73
54453;BME280;40363;52.270;10.546;2022-08-21T08:38:39;74609.06;;;-147.06;39.30
54453;BME280;40363;52.270;10.546;2022-08-21T08:41:10;74631.66;;;-147.06;39.10
54453;BME280;40363;52.270;10.546;2022-08-21T08:43:42;74600.84;;;-147.06;39.15
54453;BME280;40363;52.270;10.546;2022-08-21T08:46:12;74689.19;;;-147.06;40.24
54453;BME280;40363;52.270;10.546;2022-08-21T08:48:47;74705.63;;;-147.06;40.79
54453;BME280;40363;52.270;10.546;2022-08-21T08:51:21;74607.00;;;-147.06;39.78
54453;BME280;40363;52.270;10.546;2022-08-21T08:53:52;74576.19;;;-147.06;39.63
54453;BME280;40363;52.270;10.546;2022-08-21T08:56:26;74580.31;;;-147.06;40.27
54453;BME280;40363;52.270;10.546;2022-08-21T08:58:59;74625.50;;;-147.06;40.39
54453;BME280;40363;52.270;10.546;2022-08-21T09:01:27;74644.00;;;-147.06;40.71
54453;BME280;40363;52.270;10.546;2022-08-21T09:03:54;74594.69;;;-147.06;40.26
54453;BME280;40363;52.270;10.546;2022-08-21T09:06:34;74644.00;;;-147.06;40.06
54453;BME280;40363;52.270;10.546;2022-08-21T09:09:12;74697.41;;;-147.06;41.08
54453;BME280;40363;52.270;10.546;2022-08-21T09:11:48;74623.44;;;-147.06;40.10
54453;BME280;40363;52.270;10.546;2022-08-21T09:14:26;74754.94;;;-147.06;41.49
54453;BME280;40363;52.270;10.546;2022-08-21T09:17:01;74761.09;;;-147.06;41.54
54453;BME280;40363;52.270;10.546;2022-08-21T09:19:39;74664.53;;;-147.06;40.73
54453;BME280;40363;52.270;10.546;2022-08-21T09:22:19;74841.22;;;-147.06;42.62
54453;BME280;40363;52.270;10.546;2022-08-21T09:24:59;74904.91;;;-147.06;43.82
54453;BME280;40363;52.270;10.546;2022-08-21T09:27:29;74946.00;;;-147.06;43.43
54453;BME280;40363;52.270;10.546;2022-08-21T09:29:58;74763.16;;;-147.06;41.04
54453;BME280;40363;52.270;10.546;2022-08-21T09:32:27;74664.53;;;-147.06;39.99
54453;BME280;40363;52.270;10.546;2022-08-21T09:34:58;74685.06;;;-147.06;40.50
54453;BME280;40363;52.270;10.546;2022-08-21T09:37:26;74791.91;;;-147.06;42.29
54453;BME280;40363;52.270;10.546;2022-08-21T09:39:54;74697.41;;;-147.06;41.50
54453;BME280;40363;52.270;10.546;2022-08-21T09:42:24;74800.13;;;-147.06;42.08
54453;BME280;40363;52.270;10.546;2022-08-21T09:45:06;74652.22;;;-147.06;40.67
54453;BME280;40363;52.270;10.546;2022-08-21T09:47:33;74565.91;;;-147.06;39.21
54453;BME280;40363;52.270;10.546;2022-08-21T09:50:08;74734.38;;;-147.06;40.31
54453;BME280;40363;52.270;10.546;2022-08-21T09:52:45;74783.69;;;-147.06;40.60
54453;BME280;40363;52.270;10.546;2022-08-21T09:55:20;74660.44;;;-147.06;39.33
54453;BME280;40363;52.270;10.546;2022-08-21T09:58:06;74644.00;;;-147.06;38.64
54453;BME280;40363;52.270;10.546;2022-08-21T10:00:36;74602.91;;;-147.06;38.20
54453;BME280;40363;52.270;10.546;2022-08-21T10:03:17;74570.03;;;-147.06;38.04
54453;BME280;40363;52.270;10.546;2022-08-21T10:05:54;74561.81;;;-147.06;37.53
54453;BME280;40363;52.270;10.546;2022-08-21T10:08:23;74574.13;;;-147.06;37.26
54453;BME280;40363;52.270;10.546;2022-08-21T10:10:52;74570.03;;;-147.06;37.21
54453;BME280;40363;52.270;10.546;2022-08-21T10:13:26;74582.34;;;-147.06;37.45
54453;BME280;40363;52.270;10.546;2022-08-21T10:16:06;74607.00;;;-147.06;37.47
54453;BME280;40363;52.270;10.546;2022-08-21T10:18:41;74734.38;;;-147.06;38.33
54453;BME280;40363;52.270;10.546;2022-08-21T10:21:17;74654.25;;;-147.06;38.26
54453;BME280;40363;52.270;10.546;2022-08-21T10:24:01;74623.44;;;-147.06;37.40
54453;BME280;40363;52.270;10.546;2022-08-21T10:26:41;74592.63;;;-147.06;36.97
54453;BME280;40363;52.270;10.546;2022-08-21T10:29:17;74553.59;;;-147.06;36.33
54453;BME280;40363;52.270;10.546;2022-08-21T10:31:56;74522.78;;;-147.06;36.32
54453;BME280;40363;52.270;10.546;2022-08-21T10:34:37;74535.09;;;-147.06;35.85
54453;BME280;40363;52.270;10.546;2022-08-21T10:37:20;74553.59;;;-147.06;35.55
54453;BME280;40363;52.270;10.546;2022-08-21T10:40:01;74555.66;;;-147.06;35.87
54453;BME280;40363;52.270;10.546;2022-08-21T10:42:37;74570.03;;;-147.06;35.97
54453;BME280;40363;52.270;10.546;2022-08-21T10:45:11;74567.97;;;-147.06;36.16
54453;BME280;40363;52.270;10.546;2022-08-21T10:47:46;74559.75;;;-147.06;35.89
54453;BME280;40363;52.270;10.546;2022-08-21T10:50:23;74668.66;;;-147.06;37.22
54453;BME280;40363;52.270;10.546;2022-08-21T10:53:13;74615.22;;;-147.06;36.07
54453;BME280;40363;52.270;10.546;2022-08-21T10:55:46;74596.75;;;-147.06;35.45
54453;BME280;40363;52.270;10.546;2022-08-21T10:58:18;74621.41;;;-147.06;35.60
54453;BME280;40363;52.270;10.546;2022-08-21T11:00:51;74582.34;;;-147.06;35.52
54453;BME280;40363;52.270;10.546;2022-08-21T11:03:27;74656.31;;;-147.06;35.86
54453;BME280;40363;52.270;10.546;2022-08-21T11:05:58;74779.59;;;-147.06;37.20
54453;BME280;40363;52.270;10.546;2022-08-21T11:08:28;74709.72;;;-147.06;36.48
54453;BME280;40363;52.270;10.546;2022-08-21T11:11:00;74711.78;;;-147.06;36.56
54453;BME280;40363;52.270;10.546;2022-08-21T11:13:33;74695.34;;;-147.06;37.06
54453;BME280;40363;52.270;10.546;2022-08-21T11:16:05;74709.72;;;-147.06;36.71
54453;BME280;40363;52.270;10.546;2022-08-21T11:18:38;74703.56;;;-147.06;36.67
54453;BME280;40363;52.270;10.546;2022-08-21T11:21:27;74738.50;;;-147.06;36.70
54453;BME280;40363;52.270;10.546;2022-08-21T11:24:03;74773.41;;;-147.06;37.25
54453;BME280;40363;52.270;10.546;2022-08-21T11:26:38;74822.72;;;-147.06;37.94
54453;BME280;40363;52.270;10.546;2022-08-21T11:29:13;74812.47;;;-147.06;38.03
54453;BME280;40363;52.270;10.546;2022-08-21T11:31:56;74816.56;;;-147.06;37.72
54453;BME280;40363;52.270;10.546;2022-08-21T11:34:38;74812.47;;;-147.06;37.92
54453;BME280;40363;52.270;10.546;2022-08-21T11:37:15;74808.34;;;-147.06;36.98
54453;BME280;40363;52.270;10.546;2022-08-21T11:39:52;74796.03;;;-147.06;37.69
54453;BME280;40363;52.270;10.546;2022-08-21T11:42:30;74783.69;;;-147.06;37.94
54453;BME280;40363;52.270;10.546;2022-08-21T11:45:14;74785.75;;;-147.06;37.80
54453;BME280;40363;52.270;10.546;2022-08-21T11:47:53;74777.53;;;-147.06;36.77
54453;BME280;40363;52.270;10.546;2022-08-21T11:52:57;74767.25;;;-147.06;37.24
54453;BME280;40363;52.270;10.546;2022-08-21T11:55:28;74763.16;;;-147.06;37.35
54453;BME280;40363;52.270;10.546;2022-08-21T11:58:00;74787.81;;;-147.06;37.55
54453;BME280;40363;52.270;10.546;2022-08-21T12:00:32;74793.97;;;-147.06;37.82
54453;BME280;40363;52.270;10.546;2022-08-21T12:03:08;74808.34;;;-147.06;37.97
54453;BME280;40363;52.270;10.546;2022-08-21T12:05:38;74796.03;;;-147.06;37.91
54453;BME280;40363;52.270;10.546;2022-08-21T12:08:12;74796.03;;;-147.06;37.84
54453;BME280;40363;52.270;10.546;2022-08-21T12:10:41;74804.25;;;-147.06;37.90
54453;BME280;40363;52.270;10.546;2022-08-21T12:13:11;74793.97;;;-147.06;38.11
54453;BME280;40363;52.270;10.546;2022-08-21T12:15:39;74793.97;;;-147.06;37.47
54453;BME280;40363;52.270;10.546;2022-08-21T12:18:20;74800.13;;;-147.06;36.42
54453;BME280;40363;52.270;10.546;2022-08-21T12:20:58;74793.97;;;-147.06;36.48
54453;BME280;40363;52.270;10.546;2022-08-21T12:23:29;74808.34;;;-147.06;36.80
54453;BME280;40363;52.270;10.546;2022-08-21T12:26:13;74804.25;;;-147.06;36.63
54453;BME280;40363;52.270;10.546;2022-08-21T12:28:47;74783.69;;;-147.06;36.02
54453;BME280;40363;52.270;10.546;2022-08-21T12:31:18;74761.09;;;-147.06;36.25
54453;BME280;40363;52.270;10.546;2022-08-21T12:33:51;74759.03;;;-147.06;35.21
54453;BME280;40363;52.270;10.546;2022-08-21T12:36:21;74771.38;;;-147.06;35.84
54453;BME280;40363;52.270;10.546;2022-08-21T12:38:54;74777.53;;;-147.06;34.98
54453;BME280;40363;52.270;10.546;2022-08-21T12:41:26;74763.16;;;-147.06;34.52
54453;BME280;40363;52.270;10.546;2022-08-21T12:43:57;74732.34;;;-147.06;35.15
54453;BME280;40363;52.270;10.546;2022-08-21T12:46:36;74726.16;;;-147.06;34.14
54453;BME280;40363;52.270;10.546;2022-08-21T12:49:09;74730.28;;;-147.06;33.94
54453;BME280;40363;52.270;10.546;2022-08-21T12:51:49;74732.34;;;-147.06;33.95
54453;BME280;40363;52.270;10.546;2022-08-21T12:54:25;74767.25;;;-147.06;34.35